sensor_id;sensor_type;location;lat;lon;timestamp;P1;durP1;ratioP1;P2;durP2;ratioP2
18623;SDS011;9441;51.420;7.036;2024-01-15T00:00:20;148.07;;;33.97;;
18623;SDS011;9441;51.420;7.036;2024-01-15T00:01:22;111.40;;;33.03;;
18623;SDS011;9441;51.420;7.036;2024-01-15T00:02:24;130.43;;;33.80;;
18623;SDS011;9441;51.420;7.036;2024-01-15T00:03:25;117.10;;;33.23;;
18623;SDS011;9441;51.420;7.036;2024-01-15T00:04:28;126.77;;;33.57;;
18623;SDS011;9441;51.420;7.036;2024-01-15T00:05:29;125.63;;;34.30;;
18623;SDS011;9441;51.420;7.036;2024-01-15T00:06:31;141.03;;;32.60;;
18623;SDS011;9441;51.420;7.036;2024-01-15T00:07:33;109.60;;;33.63;;
18623;SDS011;9441;51.420;7.036;2024-01-15T00:08:36;133.07;;;33.40;;
18623;SDS011;9441;51.420;7.036;2024-01-15T00:09:37;120.57;;;32.40;;
18623;SDS011;9441;51.420;7.036;2024-01-15T00:10:40;150.70;;;33.97;;
18623;SDS011;9441;51.420;7.036;2024-01-15T00:11:41;125.83;;;33.33;;
18623;SDS011;9441;51.420;7.036;2024-01-15T00:12:44;126.90;;;35.77;;
18623;SDS011;9441;51.420;7.036;2024-01-15T00:13:46;117.50;;;32.70;;
18623;SDS011;9441;51.420;7.036;2024-01-15T00:14:49;122.23;;;33.77;;
18623;SDS011;9441;51.420;7.036;2024-01-15T00:15:50;142.40;;;33.63;;
18623;SDS011;9441;51.420;7.036;2024-01-15T00:16:52;134.67;;;34.60;;
18623;SDS011;9441;51.420;7.036;2024-01-15T00:17:55;125.93;;;33.37;;
18623;SDS011;9441;51.420;7.036;2024-01-15T00:18:58;118.03;;;32.97;;
18623;SDS011;9441;51.420;7.036;2024-01-15T00:19:59;122.33;;;34.80;;
18623;SDS011;9441;51.420;7.036;2024-01-15T00:21:01;124.53;;;33.67;;
18623;SDS011;9441;51.420;7.036;2024-01-15T00:22:03;123.50;;;32.77;;
18623;SDS011;9441;51.420;7.036;2024-01-15T00:23:06;134.50;;;34.37;;
18623;SDS011;9441;51.420;7.036;2024-01-15T00:24:07;115.37;;;34.20;;
18623;SDS011;9441;51.420;7.036;2024-01-15T00:25:09;104.27;;;30.67;;
18623;SDS011;9441;51.420;7.036;2024-01-15T00:26:11;126.77;;;34.87;;
18623;SDS011;9441;51.420;7.036;2024-01-15T00:27:13;135.40;;;34.23;;
18623;SDS011;9441;51.420;7.036;2024-01-15T00:28:14;126.30;;;34.47;;
18623;SDS011;9441;51.420;7.036;2024-01-15T00:29:18;124.03;;;34.23;;
18623;SDS011;9441;51.420;7.036;2024-01-15T00:30:19;130.03;;;35.23;;
18623;SDS011;9441;51.420;7.036;2024-01-15T00:31:22;127.97;;;34.37;;
18623;SDS011;9441;51.420;7.036;2024-01-15T00:32:23;133.47;;;34.33;;
18623;SDS011;9441;51.420;7.036;2024-01-15T00:33:25;121.80;;;32.93;;
18623;SDS011;9441;51.420;7.036;2024-01-15T00:34:27;125.83;;;33.23;;
18623;SDS011;9441;51.420;7.036;2024-01-15T00:35:29;126.33;;;34.43;;
18623;SDS011;9441;51.420;7.036;2024-01-15T00:36:30;134.27;;;33.63;;
18623;SDS011;9441;51.420;7.036;2024-01-15T00:37:33;136.10;;;35.07;;
18623;SDS011;9441;51.420;7.036;2024-01-15T00:38:34;127.53;;;34.83;;
18623;SDS011;9441;51.420;7.036;2024-01-15T00:39:36;114.57;;;32.70;;
18623;SDS011;9441;51.420;7.036;2024-01-15T00:40:38;123.80;;;34.20;;
18623;SDS011;9441;51.420;7.036;2024-01-15T00:41:40;145.60;;;33.87;;
18623;SDS011;9441;51.420;7.036;2024-01-15T00:42:41;125.53;;;34.27;;
18623;SDS011;9441;51.420;7.036;2024-01-15T00:43:43;127.67;;;34.57;;
18623;SDS011;9441;51.420;7.036;2024-01-15T00:44:46;135.27;;;35.23;;
18623;SDS011;9441;51.420;7.036;2024-01-15T00:45:48;135.13;;;35.03;;
18623;SDS011;9441;51.420;7.036;2024-01-15T00:46:50;127.33;;;33.47;;
18623;SDS011;9441;51.420;7.036;2024-01-15T00:47:51;122.10;;;34.38;;
18623;SDS011;9441;51.420;7.036;2024-01-15T00:48:53;132.63;;;34.03;;
18623;SDS011;9441;51.420;7.036;2024-01-15T00:49:55;128.20;;;35.20;;
18623;SDS011;9441;51.420;7.036;2024-01-15T00:50:57;129.57;;;35.13;;
18623;SDS011;9441;51.420;7.036;2024-01-15T00:51:59;142.17;;;35.57;;
18623;SDS011;9441;51.420;7.036;2024-01-15T00:53:01;133.17;;;35.13;;
18623;SDS011;9441;51.420;7.036;2024-01-15T00:54:03;165.60;;;35.30;;
18623;SDS011;9441;51.420;7.036;2024-01-15T00:55:05;120.50;;;34.37;;
18623;SDS011;9441;51.420;7.036;2024-01-15T00:56:08;127.40;;;34.07;;
18623;SDS011;9441;51.420;7.036;2024-01-15T00:57:09;141.77;;;34.97;;
18623;SDS011;9441;51.420;7.036;2024-01-15T00:58:12;144.53;;;36.13;;
18623;SDS011;9441;51.420;7.036;2024-01-15T00:59:13;152.50;;;35.07;;
18623;SDS011;9441;51.420;7.036;2024-01-15T01:00:17;136.67;;;34.27;;
18623;SDS011;9441;51.420;7.036;2024-01-15T01:01:18;124.07;;;34.00;;
18623;SDS011;9441;51.420;7.036;2024-01-15T01:02:21;141.27;;;34.87;;
18623;SDS011;9441;51.420;7.036;2024-01-15T01:03:22;157.57;;;38.03;;
18623;SDS011;9441;51.420;7.036;2024-01-15T01:04:24;138.20;;;35.50;;
18623;SDS011;9441;51.420;7.036;2024-01-15T01:05:26;136.07;;;34.30;;
18623;SDS011;9441;51.420;7.036;2024-01-15T01:06:27;119.10;;;34.70;;
18623;SDS011;9441;51.420;7.036;2024-01-15T01:07:29;129.10;;;33.93;;
18623;SDS011;9441;51.420;7.036;2024-01-15T01:08:30;144.50;;;34.53;;
18623;SDS011;9441;51.420;7.036;2024-01-15T01:09:33;114.63;;;32.80;;
18623;SDS011;9441;51.420;7.036;2024-01-15T01:10:34;138.63;;;34.70;;
18623;SDS011;9441;51.420;7.036;2024-01-15T01:11:37;147.37;;;34.80;;
18623;SDS011;9441;51.420;7.036;2024-01-15T01:12:38;126.43;;;34.17;;
18623;SDS011;9441;51.420;7.036;2024-01-15T01:13:39;136.27;;;35.70;;
18623;SDS011;9441;51.420;7.036;2024-01-15T01:14:41;117.83;;;33.70;;
18623;SDS011;9441;51.420;7.036;2024-01-15T01:15:44;110.67;;;31.20;;
18623;SDS011;9441;51.420;7.036;2024-01-15T01:16:46;114.10;;;32.20;;
18623;SDS011;9441;51.420;7.036;2024-01-15T01:17:48;126.43;;;31.63;;
18623;SDS011;9441;51.420;7.036;2024-01-15T01:18:50;116.27;;;32.30;;
18623;SDS011;9441;51.420;7.036;2024-01-15T01:19:51;122.77;;;33.70;;
18623;SDS011;9441;51.420;7.036;2024-01-15T01:20:54;122.37;;;33.50;;
18623;SDS011;9441;51.420;7.036;2024-01-15T01:21:55;120.63;;;33.07;;
18623;SDS011;9441;51.420;7.036;2024-01-15T01:22:57;120.87;;;33.30;;
18623;SDS011;9441;51.420;7.036;2024-01-15T01:23:59;134.30;;;33.43;;
18623;SDS011;9441;51.420;7.036;2024-01-15T01:25:01;140.37;;;34.50;;
18623;SDS011;9441;51.420;7.036;2024-01-15T01:26:02;113.67;;;31.43;;
18623;SDS011;9441;51.420;7.036;2024-01-15T01:27:05;116.87;;;31.93;;
18623;SDS011;9441;51.420;7.036;2024-01-15T01:28:06;116.00;;;31.63;;
18623;SDS011;9441;51.420;7.036;2024-01-15T01:29:09;124.30;;;33.40;;
18623;SDS011;9441;51.420;7.036;2024-01-15T01:30:11;119.60;;;32.93;;
18623;SDS011;9441;51.420;7.036;2024-01-15T01:31:14;111.20;;;31.37;;
18623;SDS011;9441;51.420;7.036;2024-01-15T01:32:16;111.55;;;31.88;;
18623;SDS011;9441;51.420;7.036;2024-01-15T01:33:19;121.03;;;31.73;;
18623;SDS011;9441;51.420;7.036;2024-01-15T01:34:21;125.43;;;31.50;;
18623;SDS011;9441;51.420;7.036;2024-01-15T01:35:23;136.43;;;33.33;;
18623;SDS011;9441;51.420;7.036;2024-01-15T01:36:25;114.97;;;32.57;;
18623;SDS011;9441;51.420;7.036;2024-01-15T01:37:27;121.73;;;33.27;;
18623;SDS011;9441;51.420;7.036;2024-01-15T01:38:28;121.23;;;32.67;;
18623;SDS011;9441;51.420;7.036;2024-01-15T01:39:30;101.63;;;30.37;;
18623;SDS011;9441;51.420;7.036;2024-01-15T01:40:32;124.13;;;32.87;;
18623;SDS011;9441;51.420;7.036;2024-01-15T01:41:34;112.37;;;31.07;;
18623;SDS011;9441;51.420;7.036;2024-01-15T01:42:35;105.07;;;30.43;;
18623;SDS011;9441;51.420;7.036;2024-01-15T01:43:38;116.50;;;31.80;;
18623;SDS011;9441;51.420;7.036;2024-01-15T01:44:39;110.53;;;32.30;;
18623;SDS011;9441;51.420;7.036;2024-01-15T01:45:41;120.87;;;32.27;;
18623;SDS011;9441;51.420;7.036;2024-01-15T01:46:44;114.93;;;32.63;;
18623;SDS011;9441;51.420;7.036;2024-01-15T01:47:46;105.23;;;32.30;;
18623;SDS011;9441;51.420;7.036;2024-01-15T01:48:48;123.80;;;33.43;;
18623;SDS011;9441;51.420;7.036;2024-01-15T01:49:50;120.17;;;31.93;;
18623;SDS011;9441;51.420;7.036;2024-01-15T01:50:52;120.57;;;34.70;;
18623;SDS011;9441;51.420;7.036;2024-01-15T01:51:55;106.53;;;32.17;;
18623;SDS011;9441;51.420;7.036;2024-01-15T01:52:57;124.10;;;34.00;;
18623;SDS011;9441;51.420;7.036;2024-01-15T01:53:59;131.90;;;33.40;;
18623;SDS011;9441;51.420;7.036;2024-01-15T01:55:01;140.93;;;34.13;;
18623;SDS011;9441;51.420;7.036;2024-01-15T01:56:04;146.13;;;35.27;;
18623;SDS011;9441;51.420;7.036;2024-01-15T01:57:06;136.63;;;35.80;;
18623;SDS011;9441;51.420;7.036;2024-01-15T01:58:09;121.43;;;35.37;;
18623;SDS011;9441;51.420;7.036;2024-01-15T01:59:11;126.47;;;35.20;;
18623;SDS011;9441;51.420;7.036;2024-01-15T02:00:13;139.23;;;34.70;;
18623;SDS011;9441;51.420;7.036;2024-01-15T02:01:15;126.23;;;33.87;;
18623;SDS011;9441;51.420;7.036;2024-01-15T02:02:21;127.50;;;34.23;;
18623;SDS011;9441;51.420;7.036;2024-01-15T02:03:23;129.30;;;34.47;;
18623;SDS011;9441;51.420;7.036;2024-01-15T02:04:25;130.70;;;34.10;;
18623;SDS011;9441;51.420;7.036;2024-01-15T02:05:27;135.97;;;33.53;;
18623;SDS011;9441;51.420;7.036;2024-01-15T02:06:29;128.90;;;33.10;;
18623;SDS011;9441;51.420;7.036;2024-01-15T02:07:31;114.73;;;33.37;;
18623;SDS011;9441;51.420;7.036;2024-01-15T02:08:34;131.03;;;34.17;;
18623;SDS011;9441;51.420;7.036;2024-01-15T02:09:35;122.63;;;34.27;;
18623;SDS011;9441;51.420;7.036;2024-01-15T02:10:36;130.43;;;32.47;;
18623;SDS011;9441;51.420;7.036;2024-01-15T02:11:38;118.40;;;31.37;;
18623;SDS011;9441;51.420;7.036;2024-01-15T02:12:41;144.73;;;32.47;;
18623;SDS011;9441;51.420;7.036;2024-01-15T02:13:44;126.23;;;32.33;;
18623;SDS011;9441;51.420;7.036;2024-01-15T02:14:45;119.83;;;31.60;;
18623;SDS011;9441;51.420;7.036;2024-01-15T02:15:48;115.47;;;32.60;;
18623;SDS011;9441;51.420;7.036;2024-01-15T02:16:49;122.07;;;31.27;;
18623;SDS011;9441;51.420;7.036;2024-01-15T02:17:58;123.30;;;32.30;;
18623;SDS011;9441;51.420;7.036;2024-01-15T02:19:01;118.57;;;31.50;;
18623;SDS011;9441;51.420;7.036;2024-01-15T02:20:03;101.80;;;29.20;;
18623;SDS011;9441;51.420;7.036;2024-01-15T02:21:05;96.33;;;28.00;;
18623;SDS011;9441;51.420;7.036;2024-01-15T02:22:07;109.47;;;31.10;;
18623;SDS011;9441;51.420;7.036;2024-01-15T02:23:10;122.30;;;30.17;;
18623;SDS011;9441;51.420;7.036;2024-01-15T02:24:12;116.83;;;31.57;;
18623;SDS011;9441;51.420;7.036;2024-01-15T02:25:14;105.73;;;30.43;;
18623;SDS011;9441;51.420;7.036;2024-01-15T02:26:16;128.80;;;32.03;;
18623;SDS011;9441;51.420;7.036;2024-01-15T02:27:18;132.33;;;32.43;;
18623;SDS011;9441;51.420;7.036;2024-01-15T02:28:21;117.00;;;31.97;;
18623;SDS011;9441;51.420;7.036;2024-01-15T02:29:22;109.47;;;30.47;;
18623;SDS011;9441;51.420;7.036;2024-01-15T02:30:25;114.27;;;30.23;;
18623;SDS011;9441;51.420;7.036;2024-01-15T02:31:26;112.43;;;29.37;;
18623;SDS011;9441;51.420;7.036;2024-01-15T02:32:28;104.87;;;30.00;;
18623;SDS011;9441;51.420;7.036;2024-01-15T02:33:30;103.77;;;28.10;;
18623;SDS011;9441;51.420;7.036;2024-01-15T02:34:32;99.80;;;27.47;;
18623;SDS011;9441;51.420;7.036;2024-01-15T02:35:33;107.70;;;27.47;;
18623;SDS011;9441;51.420;7.036;2024-01-15T02:36:37;111.40;;;29.60;;
18623;SDS011;9441;51.420;7.036;2024-01-15T02:37:38;103.67;;;26.53;;
18623;SDS011;9441;51.420;7.036;2024-01-15T02:38:42;102.87;;;28.10;;
18623;SDS011;9441;51.420;7.036;2024-01-15T02:39:43;108.70;;;27.03;;
18623;SDS011;9441;51.420;7.036;2024-01-15T02:40:46;109.00;;;28.33;;
18623;SDS011;9441;51.420;7.036;2024-01-15T02:41:48;92.00;;;24.67;;
18623;SDS011;9441;51.420;7.036;2024-01-15T02:42:49;101.30;;;26.43;;
18623;SDS011;9441;51.420;7.036;2024-01-15T02:43:51;99.43;;;27.60;;
18623;SDS011;9441;51.420;7.036;2024-01-15T02:44:53;94.77;;;27.40;;
18623;SDS011;9441;51.420;7.036;2024-01-15T02:45:55;90.27;;;26.60;;
18623;SDS011;9441;51.420;7.036;2024-01-15T02:46:56;108.13;;;26.93;;
18623;SDS011;9441;51.420;7.036;2024-01-15T02:47:58;109.70;;;25.63;;
18623;SDS011;9441;51.420;7.036;2024-01-15T02:49:00;110.43;;;24.93;;
18623;SDS011;9441;51.420;7.036;2024-01-15T02:50:02;90.10;;;25.50;;
18623;SDS011;9441;51.420;7.036;2024-01-15T02:51:04;102.17;;;25.63;;
18623;SDS011;9441;51.420;7.036;2024-01-15T02:52:06;103.33;;;26.40;;
18623;SDS011;9441;51.420;7.036;2024-01-15T02:53:08;89.17;;;23.80;;
18623;SDS011;9441;51.420;7.036;2024-01-15T02:54:11;98.20;;;25.07;;
18623;SDS011;9441;51.420;7.036;2024-01-15T02:55:13;109.00;;;24.87;;
18623;SDS011;9441;51.420;7.036;2024-01-15T02:56:15;102.30;;;24.17;;
18623;SDS011;9441;51.420;7.036;2024-01-15T02:57:16;84.07;;;26.30;;
18623;SDS011;9441;51.420;7.036;2024-01-15T02:58:19;89.60;;;25.33;;
18623;SDS011;9441;51.420;7.036;2024-01-15T02:59:20;89.43;;;26.00;;
18623;SDS011;9441;51.420;7.036;2024-01-15T03:00:22;100.83;;;25.57;;
18623;SDS011;9441;51.420;7.036;2024-01-15T03:01:24;105.50;;;26.60;;
18623;SDS011;9441;51.420;7.036;2024-01-15T03:02:26;107.87;;;26.10;;
18623;SDS011;9441;51.420;7.036;2024-01-15T03:03:27;105.13;;;26.97;;
18623;SDS011;9441;51.420;7.036;2024-01-15T03:04:30;100.97;;;27.07;;
18623;SDS011;9441;51.420;7.036;2024-01-15T03:05:31;104.30;;;26.40;;
18623;SDS011;9441;51.420;7.036;2024-01-15T03:06:33;111.43;;;28.13;;
18623;SDS011;9441;51.420;7.036;2024-01-15T03:07:35;96.57;;;26.83;;
18623;SDS011;9441;51.420;7.036;2024-01-15T03:08:37;108.93;;;28.10;;
18623;SDS011;9441;51.420;7.036;2024-01-15T03:09:40;100.07;;;27.17;;
18623;SDS011;9441;51.420;7.036;2024-01-15T03:10:42;89.53;;;23.17;;
18623;SDS011;9441;51.420;7.036;2024-01-15T03:11:43;105.77;;;25.97;;
18623;SDS011;9441;51.420;7.036;2024-01-15T03:12:45;98.43;;;25.90;;
18623;SDS011;9441;51.420;7.036;2024-01-15T03:13:47;99.03;;;25.43;;
18623;SDS011;9441;51.420;7.036;2024-01-15T03:14:49;83.00;;;23.93;;
18623;SDS011;9441;51.420;7.036;2024-01-15T03:15:50;98.00;;;23.80;;
18623;SDS011;9441;51.420;7.036;2024-01-15T03:16:53;89.50;;;25.13;;
18623;SDS011;9441;51.420;7.036;2024-01-15T03:17:54;98.70;;;25.10;;
18623;SDS011;9441;51.420;7.036;2024-01-15T03:18:57;83.30;;;24.67;;
18623;SDS011;9441;51.420;7.036;2024-01-15T03:19:58;91.07;;;26.23;;
18623;SDS011;9441;51.420;7.036;2024-01-15T03:21:00;80.40;;;24.03;;
18623;SDS011;9441;51.420;7.036;2024-01-15T03:22:02;84.83;;;25.77;;
18623;SDS011;9441;51.420;7.036;2024-01-15T03:23:04;82.67;;;24.47;;
18623;SDS011;9441;51.420;7.036;2024-01-15T03:24:06;93.70;;;25.83;;
18623;SDS011;9441;51.420;7.036;2024-01-15T03:25:09;89.00;;;26.57;;
18623;SDS011;9441;51.420;7.036;2024-01-15T03:26:11;94.53;;;26.33;;
18623;SDS011;9441;51.420;7.036;2024-01-15T03:27:12;94.70;;;26.80;;
18623;SDS011;9441;51.420;7.036;2024-01-15T03:28:15;90.43;;;25.80;;
18623;SDS011;9441;51.420;7.036;2024-01-15T03:29:16;97.60;;;26.47;;
18623;SDS011;9441;51.420;7.036;2024-01-15T03:30:18;89.67;;;26.60;;
18623;SDS011;9441;51.420;7.036;2024-01-15T03:31:20;92.43;;;27.67;;
18623;SDS011;9441;51.420;7.036;2024-01-15T03:32:22;89.07;;;27.40;;
18623;SDS011;9441;51.420;7.036;2024-01-15T03:33:23;85.47;;;26.93;;
18623;SDS011;9441;51.420;7.036;2024-01-15T03:34:26;101.83;;;27.63;;
18623;SDS011;9441;51.420;7.036;2024-01-15T03:35:27;87.97;;;26.07;;
18623;SDS011;9441;51.420;7.036;2024-01-15T03:36:31;106.40;;;27.83;;
18623;SDS011;9441;51.420;7.036;2024-01-15T03:37:32;99.43;;;28.03;;
18623;SDS011;9441;51.420;7.036;2024-01-15T03:38:34;104.17;;;29.30;;
18623;SDS011;9441;51.420;7.036;2024-01-15T03:39:39;100.27;;;27.13;;
18623;SDS011;9441;51.420;7.036;2024-01-15T03:40:42;100.17;;;27.83;;
18623;SDS011;9441;51.420;7.036;2024-01-15T03:41:44;112.57;;;28.50;;
18623;SDS011;9441;51.420;7.036;2024-01-15T03:42:46;90.63;;;26.33;;
18623;SDS011;9441;51.420;7.036;2024-01-15T03:43:48;95.07;;;28.53;;
18623;SDS011;9441;51.420;7.036;2024-01-15T03:44:49;99.67;;;27.50;;
18623;SDS011;9441;51.420;7.036;2024-01-15T03:45:51;98.30;;;28.50;;
18623;SDS011;9441;51.420;7.036;2024-01-15T03:46:53;90.97;;;27.00;;
18623;SDS011;9441;51.420;7.036;2024-01-15T03:47:55;85.33;;;26.57;;
18623;SDS011;9441;51.420;7.036;2024-01-15T03:48:56;98.10;;;26.53;;
18623;SDS011;9441;51.420;7.036;2024-01-15T03:49:59;117.33;;;27.70;;
18623;SDS011;9441;51.420;7.036;2024-01-15T03:51:00;78.47;;;25.70;;
18623;SDS011;9441;51.420;7.036;2024-01-15T03:52:03;82.57;;;25.47;;
18623;SDS011;9441;51.420;7.036;2024-01-15T03:53:04;82.23;;;25.90;;
18623;SDS011;9441;51.420;7.036;2024-01-15T03:54:07;101.73;;;26.93;;
18623;SDS011;9441;51.420;7.036;2024-01-15T03:55:08;89.77;;;26.23;;
18623;SDS011;9441;51.420;7.036;2024-01-15T03:56:11;79.47;;;25.70;;
18623;SDS011;9441;51.420;7.036;2024-01-15T03:57:13;92.60;;;26.00;;
18623;SDS011;9441;51.420;7.036;2024-01-15T03:58:14;83.40;;;26.33;;
18623;SDS011;9441;51.420;7.036;2024-01-15T03:59:17;99.23;;;26.97;;
18623;SDS011;9441;51.420;7.036;2024-01-15T04:00:18;88.03;;;25.50;;
18623;SDS011;9441;51.420;7.036;2024-01-15T04:01:21;97.73;;;25.93;;
18623;SDS011;9441;51.420;7.036;2024-01-15T04:02:22;84.63;;;26.57;;
18623;SDS011;9441;51.420;7.036;2024-01-15T04:03:24;80.50;;;25.53;;
18623;SDS011;9441;51.420;7.036;2024-01-15T04:04:26;79.67;;;25.37;;
18623;SDS011;9441;51.420;7.036;2024-01-15T04:05:28;89.60;;;25.67;;
18623;SDS011;9441;51.420;7.036;2024-01-15T04:06:29;81.77;;;25.73;;
18623;SDS011;9441;51.420;7.036;2024-01-15T04:07:32;91.20;;;25.00;;
18623;SDS011;9441;51.420;7.036;2024-01-15T04:08:33;92.57;;;25.50;;
18623;SDS011;9441;51.420;7.036;2024-01-15T04:09:36;80.20;;;25.93;;
18623;SDS011;9441;51.420;7.036;2024-01-15T04:10:37;78.17;;;24.90;;
18623;SDS011;9441;51.420;7.036;2024-01-15T04:11:40;89.87;;;25.23;;
18623;SDS011;9441;51.420;7.036;2024-01-15T04:12:42;92.50;;;25.53;;
18623;SDS011;9441;51.420;7.036;2024-01-15T04:13:43;94.23;;;26.10;;
18623;SDS011;9441;51.420;7.036;2024-01-15T04:14:46;103.50;;;26.50;;
18623;SDS011;9441;51.420;7.036;2024-01-15T04:15:47;98.97;;;26.70;;
18623;SDS011;9441;51.420;7.036;2024-01-15T04:16:49;92.57;;;26.37;;
18623;SDS011;9441;51.420;7.036;2024-01-15T04:17:51;95.70;;;25.93;;
18623;SDS011;9441;51.420;7.036;2024-01-15T04:18:54;83.27;;;25.80;;
18623;SDS011;9441;51.420;7.036;2024-01-15T04:19:55;102.27;;;26.57;;
18623;SDS011;9441;51.420;7.036;2024-01-15T04:20:56;77.00;;;25.57;;
18623;SDS011;9441;51.420;7.036;2024-01-15T04:21:58;94.13;;;25.70;;
18623;SDS011;9441;51.420;7.036;2024-01-15T04:23:00;86.27;;;25.93;;
18623;SDS011;9441;51.420;7.036;2024-01-15T04:24:02;89.93;;;26.33;;
18623;SDS011;9441;51.420;7.036;2024-01-15T04:25:04;85.27;;;26.37;;
18623;SDS011;9441;51.420;7.036;2024-01-15T04:26:06;93.63;;;27.00;;
18623;SDS011;9441;51.420;7.036;2024-01-15T04:27:09;101.97;;;25.63;;
18623;SDS011;9441;51.420;7.036;2024-01-15T04:28:11;88.67;;;26.50;;
18623;SDS011;9441;51.420;7.036;2024-01-15T04:29:13;87.10;;;26.97;;
18623;SDS011;9441;51.420;7.036;2024-01-15T04:30:14;94.77;;;26.83;;
18623;SDS011;9441;51.420;7.036;2024-01-15T04:31:23;111.43;;;27.93;;
18623;SDS011;9441;51.420;7.036;2024-01-15T04:32:24;98.67;;;25.73;;
18623;SDS011;9441;51.420;7.036;2024-01-15T04:33:26;80.57;;;25.60;;
18623;SDS011;9441;51.420;7.036;2024-01-15T04:34:28;90.60;;;26.53;;
18623;SDS011;9441;51.420;7.036;2024-01-15T04:35:30;101.77;;;28.83;;
18623;SDS011;9441;51.420;7.036;2024-01-15T04:36:31;75.63;;;25.50;;
18623;SDS011;9441;51.420;7.036;2024-01-15T04:37:34;98.43;;;27.47;;
18623;SDS011;9441;51.420;7.036;2024-01-15T04:38:35;88.37;;;25.43;;
18623;SDS011;9441;51.420;7.036;2024-01-15T04:39:37;94.70;;;25.70;;
18623;SDS011;9441;51.420;7.036;2024-01-15T04:40:39;99.90;;;26.80;;
18623;SDS011;9441;51.420;7.036;2024-01-15T04:41:41;96.23;;;25.47;;
18623;SDS011;9441;51.420;7.036;2024-01-15T04:42:44;98.63;;;25.87;;
18623;SDS011;9441;51.420;7.036;2024-01-15T04:43:46;91.23;;;24.27;;
18623;SDS011;9441;51.420;7.036;2024-01-15T04:44:48;88.37;;;25.67;;
18623;SDS011;9441;51.420;7.036;2024-01-15T04:45:50;86.97;;;26.20;;
18623;SDS011;9441;51.420;7.036;2024-01-15T04:46:51;76.87;;;25.00;;
18623;SDS011;9441;51.420;7.036;2024-01-15T04:47:54;84.67;;;25.47;;
18623;SDS011;9441;51.420;7.036;2024-01-15T04:48:56;85.27;;;25.27;;
18623;SDS011;9441;51.420;7.036;2024-01-15T04:49:57;75.13;;;24.23;;
18623;SDS011;9441;51.420;7.036;2024-01-15T04:50:59;87.07;;;25.10;;
18623;SDS011;9441;51.420;7.036;2024-01-15T04:52:01;97.33;;;25.00;;
18623;SDS011;9441;51.420;7.036;2024-01-15T04:53:03;97.43;;;25.90;;
18623;SDS011;9441;51.420;7.036;2024-01-15T04:54:04;86.60;;;24.47;;
18623;SDS011;9441;51.420;7.036;2024-01-15T04:55:07;93.43;;;24.83;;
18623;SDS011;9441;51.420;7.036;2024-01-15T04:56:08;90.83;;;24.87;;
18623;SDS011;9441;51.420;7.036;2024-01-15T04:57:10;73.23;;;23.97;;
18623;SDS011;9441;51.420;7.036;2024-01-15T04:58:13;84.10;;;24.53;;
18623;SDS011;9441;51.420;7.036;2024-01-15T04:59:14;83.03;;;24.73;;
18623;SDS011;9441;51.420;7.036;2024-01-15T05:00:17;76.83;;;25.50;;
18623;SDS011;9441;51.420;7.036;2024-01-15T05:01:19;90.93;;;26.37;;
18623;SDS011;9441;51.420;7.036;2024-01-15T05:02:22;78.03;;;25.87;;
18623;SDS011;9441;51.420;7.036;2024-01-15T05:03:23;79.77;;;24.67;;
18623;SDS011;9441;51.420;7.036;2024-01-15T05:04:25;77.77;;;24.33;;
18623;SDS011;9441;51.420;7.036;2024-01-15T05:05:27;75.93;;;24.37;;
18623;SDS011;9441;51.420;7.036;2024-01-15T05:06:29;75.30;;;23.87;;
18623;SDS011;9441;51.420;7.036;2024-01-15T05:07:30;82.47;;;24.07;;
18623;SDS011;9441;51.420;7.036;2024-01-15T05:08:33;83.50;;;24.13;;
18623;SDS011;9441;51.420;7.036;2024-01-15T05:09:34;89.87;;;24.43;;
18623;SDS011;9441;51.420;7.036;2024-01-15T05:10:36;83.63;;;24.17;;
18623;SDS011;9441;51.420;7.036;2024-01-15T05:11:38;75.83;;;24.13;;
18623;SDS011;9441;51.420;7.036;2024-01-15T05:12:40;83.30;;;24.10;;
18623;SDS011;9441;51.420;7.036;2024-01-15T05:13:43;79.97;;;23.67;;
18623;SDS011;9441;51.420;7.036;2024-01-15T05:14:45;79.90;;;23.80;;
18623;SDS011;9441;51.420;7.036;2024-01-15T05:15:46;76.53;;;23.13;;
18623;SDS011;9441;51.420;7.036;2024-01-15T05:16:49;78.43;;;22.47;;
18623;SDS011;9441;51.420;7.036;2024-01-15T05:17:50;73.50;;;22.73;;
18623;SDS011;9441;51.420;7.036;2024-01-15T05:18:53;75.70;;;23.23;;
18623;SDS011;9441;51.420;7.036;2024-01-15T05:19:54;86.63;;;23.73;;
18623;SDS011;9441;51.420;7.036;2024-01-15T05:20:56;84.83;;;23.10;;
18623;SDS011;9441;51.420;7.036;2024-01-15T05:21:58;73.57;;;22.27;;
18623;SDS011;9441;51.420;7.036;2024-01-15T05:23:00;77.97;;;23.77;;
18623;SDS011;9441;51.420;7.036;2024-01-15T05:24:02;73.00;;;23.03;;
18623;SDS011;9441;51.420;7.036;2024-01-15T05:25:04;73.07;;;23.07;;
18623;SDS011;9441;51.420;7.036;2024-01-15T05:26:06;81.17;;;24.40;;
18623;SDS011;9441;51.420;7.036;2024-01-15T05:27:09;74.70;;;23.10;;
18623;SDS011;9441;51.420;7.036;2024-01-15T05:28:11;79.10;;;23.83;;
18623;SDS011;9441;51.420;7.036;2024-01-15T05:29:15;76.97;;;23.63;;
18623;SDS011;9441;51.420;7.036;2024-01-15T05:30:16;92.23;;;24.10;;
18623;SDS011;9441;51.420;7.036;2024-01-15T05:31:19;85.53;;;24.07;;
18623;SDS011;9441;51.420;7.036;2024-01-15T05:32:20;78.53;;;23.33;;
18623;SDS011;9441;51.420;7.036;2024-01-15T05:33:22;78.87;;;23.73;;
18623;SDS011;9441;51.420;7.036;2024-01-15T05:34:24;86.90;;;23.90;;
18623;SDS011;9441;51.420;7.036;2024-01-15T05:35:26;72.73;;;24.23;;
18623;SDS011;9441;51.420;7.036;2024-01-15T05:36:27;83.10;;;24.83;;
18623;SDS011;9441;51.420;7.036;2024-01-15T05:37:30;74.40;;;23.00;;
18623;SDS011;9441;51.420;7.036;2024-01-15T05:38:31;78.73;;;23.73;;
18623;SDS011;9441;51.420;7.036;2024-01-15T05:39:33;88.63;;;24.23;;
18623;SDS011;9441;51.420;7.036;2024-01-15T05:40:35;89.73;;;23.93;;
18623;SDS011;9441;51.420;7.036;2024-01-15T05:41:36;85.83;;;24.27;;
18623;SDS011;9441;51.420;7.036;2024-01-15T05:42:38;80.30;;;24.10;;
18623;SDS011;9441;51.420;7.036;2024-01-15T05:43:40;84.40;;;24.87;;
18623;SDS011;9441;51.420;7.036;2024-01-15T05:44:43;84.17;;;23.77;;
18623;SDS011;9441;51.420;7.036;2024-01-15T05:45:44;82.57;;;24.23;;
18623;SDS011;9441;51.420;7.036;2024-01-15T05:46:47;84.07;;;23.47;;
18623;SDS011;9441;51.420;7.036;2024-01-15T05:47:48;74.80;;;23.07;;
18623;SDS011;9441;51.420;7.036;2024-01-15T05:48:50;75.80;;;24.57;;
18623;SDS011;9441;51.420;7.036;2024-01-15T05:49:52;79.03;;;23.63;;
18623;SDS011;9441;51.420;7.036;2024-01-15T05:50:53;82.90;;;23.77;;
18623;SDS011;9441;51.420;7.036;2024-01-15T05:51:56;80.20;;;23.33;;
18623;SDS011;9441;51.420;7.036;2024-01-15T05:52:57;79.53;;;23.90;;
18623;SDS011;9441;51.420;7.036;2024-01-15T05:53:59;73.27;;;22.37;;
18623;SDS011;9441;51.420;7.036;2024-01-15T05:55:01;79.03;;;23.50;;
18623;SDS011;9441;51.420;7.036;2024-01-15T05:56:03;75.50;;;23.50;;
18623;SDS011;9441;51.420;7.036;2024-01-15T05:57:05;74.47;;;22.60;;
18623;SDS011;9441;51.420;7.036;2024-01-15T05:58:07;66.93;;;22.80;;
18623;SDS011;9441;51.420;7.036;2024-01-15T05:59:08;84.07;;;25.00;;
18623;SDS011;9441;51.420;7.036;2024-01-15T06:00:12;72.60;;;22.50;;
18623;SDS011;9441;51.420;7.036;2024-01-15T06:01:14;91.83;;;24.77;;
18623;SDS011;9441;51.420;7.036;2024-01-15T06:02:16;72.90;;;21.93;;
18623;SDS011;9441;51.420;7.036;2024-01-15T06:03:18;86.43;;;23.27;;
18623;SDS011;9441;51.420;7.036;2024-01-15T06:04:19;85.87;;;23.30;;
18623;SDS011;9441;51.420;7.036;2024-01-15T06:05:22;76.17;;;23.90;;